This is the latest recevied weather packets stored in our database for station/object WB0RXX. If no packets are shown the sender has not sent any weather packets the latest 1 day(s).
| Time | Temp. | Humidity | Pressure | Rain* | Wind** | Luminosity | Snow |
|---|---|---|---|---|---|---|---|
| 1778092205 | 7.22° C | 51% | 1017.8 hPa | 0 mm | - | - | - |
| 1778085003 | 5° C | 55% | 1018.3 hPa | 0 mm | - | - | - |
| 1778080803 | 4.44° C | 59% | 1018.2 hPa | 0 mm | - | - | - |
| 1778073004 | 3.33° C | 71% | 1017.8 hPa | 0 mm | - | - | - |
| 1778071204 | 2.78° C | 72% | 1017.5 hPa | 0 mm | - | - | - |
| 1778068204 | 2.78° C | 70% | 1016.9 hPa | 0 mm | - | - | - |
| 1778061005 | 2.78° C | 70% | 1016.3 hPa | 0 mm | - | - | - |
| 1778058605 | 2.22° C | 71% | 1015.9 hPa | 0 mm | - | - | - |
| 1778056804 | 2.22° C | 70% | 1016 hPa | 0 mm | - | - | - |
| 1778056205 | 2.22° C | 69% | 1015.9 hPa | 0 mm | - | - | - |
| 1778053218 | 1.67° C | 68% | 1015.7 hPa | 0 mm | - | - | - |
| 1778052605 | 1.67° C | 68% | 1015.7 hPa | 0 mm | - | - | - |
| 1778050805 | 2.22° C | 66% | 1016 hPa | 0 mm | - | - | - |
| 1778050220 | 2.22° C | 65% | 1015.8 hPa | 0 mm | - | - | - |
| 1778046019 | 3.33° C | 61% | 1015.8 hPa | 0 mm | - | - | - |
| 1778045405 | 3.89° C | 60% | 1015.8 hPa | 0 mm | - | - | - |
| 1778043608 | 3.89° C | 59% | 1015.6 hPa | 0 mm | - | - | - |
| 1778041218 | 4.44° C | 57% | 1015.5 hPa | 0 mm | - | - | - |
| 1778038804 | 4.44° C | 56% | 1015.3 hPa | 0 mm | - | - | - |
| 1778023803 | 8.33° C | 46% | 1013 hPa | 0 mm | - | - | - |
| 1778017805 | 9.44° C | 44% | 1012.6 hPa | 0 mm | - | - | - |
| 1778016604 | 10° C | 40% | 1012.5 hPa | 0 mm | - | - | - |
| 1778015404 | 10° C | 41% | 1012.6 hPa | 0 mm | - | - | - |
* Rain latest hour (hover to see other rain measurements)
** Current wind speed in m/s (hover to see current wind gust speed)